createdAt,value
2022-08-23T00:00:16.269Z,98511.00
2022-08-23T00:02:45.121Z,98510.34
2022-08-23T00:05:18.155Z,98510.63
2022-08-23T00:07:45.304Z,98506.91
2022-08-23T00:10:20.107Z,98510.06
2022-08-23T00:12:47.352Z,98514.88
2022-08-23T00:15:22.145Z,98521.63
2022-08-23T00:17:48.808Z,98514.22
2022-08-23T00:20:24.446Z,98514.38
2022-08-23T00:22:51.323Z,98513.16
2022-08-23T00:25:32.111Z,98512.69
2022-08-23T00:28:05.184Z,98506.78
2022-08-23T00:30:41.591Z,98509.19
2022-08-23T00:33:15.276Z,98495.44
2022-08-23T00:35:49.185Z,98492.94
2022-08-23T00:38:34.157Z,98498.66
2022-08-23T00:41:09.141Z,98497.53
2022-08-23T00:43:55.864Z,98493.59
2022-08-23T00:47:05.125Z,98493.63
2022-08-23T00:49:33.867Z,98502.25
2022-08-23T00:52:10.276Z,98513.81
2022-08-23T00:54:37.917Z,98510.91
2022-08-23T00:57:12.253Z,98513.94
2022-08-23T00:59:39.188Z,98493.94
2022-08-23T01:02:13.288Z,98497.88
2022-08-23T01:04:44.467Z,98501.84
2022-08-23T01:07:17.154Z,98494.25
2022-08-23T01:09:44.907Z,98482.53
2022-08-23T01:12:33.045Z,98484.13
2022-08-23T01:15:10.112Z,98473.88
2022-08-23T01:18:10.153Z,98486.34
2022-08-23T01:20:54.271Z,98486.53
2022-08-23T01:23:47.279Z,98484.59
2022-08-23T01:26:27.127Z,98483.84
2022-08-23T01:29:01.111Z,98479.72
2022-08-23T01:31:28.959Z,98486.44
2022-08-23T01:34:06.109Z,98483.28
2022-08-23T01:36:39.132Z,98480.41
2022-08-23T01:39:06.150Z,98484.13
2022-08-23T01:41:39.119Z,98479.41
2022-08-23T01:44:06.593Z,98476.09
2022-08-23T01:46:40.085Z,98483.41
2022-08-23T01:49:08.467Z,98489.78
2022-08-23T01:51:42.108Z,98490.16
2022-08-23T01:54:08.904Z,98497.09
2022-08-23T01:56:42.061Z,98489.34
2022-08-23T01:59:09.836Z,98477.59
2022-08-23T02:01:43.111Z,98467.38
2022-08-23T02:04:09.819Z,98487.94
2022-08-23T02:06:43.082Z,98489.16
2022-08-23T02:09:17.504Z,98494.13
2022-08-23T02:11:52.100Z,98506.50
2022-08-23T02:14:33.611Z,98500.06
2022-08-23T02:17:13.077Z,98508.88
2022-08-23T02:19:40.609Z,98506.13
2022-08-23T02:22:14.053Z,98512.59
2022-08-23T02:24:52.205Z,98516.09
2022-08-23T02:27:32.043Z,98521.16
2022-08-23T02:29:58.820Z,98524.50
2022-08-23T02:32:33.372Z,98525.75
2022-08-23T02:35:04.993Z,98526.31
2022-08-23T02:37:39.074Z,98529.72
2022-08-23T02:40:06.523Z,98522.06
2022-08-23T02:42:40.237Z,98526.22
2022-08-23T02:45:15.115Z,98525.91
2022-08-23T02:47:41.767Z,98523.91
2022-08-23T02:50:15.256Z,98522.25
2022-08-23T02:52:50.065Z,98522.13
2022-08-23T02:55:17.276Z,98525.00
2022-08-23T02:57:44.023Z,98530.69
2022-08-23T03:00:18.039Z,98533.69
2022-08-23T03:02:52.065Z,98539.38
2022-08-23T03:05:18.732Z,98536.06
2022-08-23T03:07:52.054Z,98528.38
2022-08-23T03:10:18.669Z,98536.59
2022-08-23T03:12:52.056Z,98543.72
2022-08-23T03:15:18.684Z,98547.22
2022-08-23T03:17:52.220Z,98538.84
2022-08-23T03:20:18.868Z,98538.13
2022-08-23T03:22:54.362Z,98542.16
2022-08-23T03:25:28.552Z,98535.88
2022-08-23T03:28:14.027Z,98526.63
2022-08-23T03:30:47.057Z,98534.19
2022-08-23T03:33:20.101Z,98535.75
2022-08-23T03:35:46.777Z,98543.50
2022-08-23T03:38:21.051Z,98538.44
2022-08-23T03:40:47.549Z,98544.41
2022-08-23T03:43:21.054Z,98543.59
2022-08-23T03:45:54.026Z,98548.78
2022-08-23T03:48:27.117Z,98560.69
2022-08-23T03:51:00.228Z,98551.56
2022-08-23T03:53:26.887Z,98553.91
2022-08-23T03:56:01.049Z,98552.88
2022-08-23T03:58:36.054Z,98558.41
2022-08-23T04:01:09.244Z,98552.94
2022-08-23T04:03:35.891Z,98553.69
2022-08-23T04:06:09.028Z,98555.72
2022-08-23T04:08:42.210Z,98558.09
2022-08-23T04:11:09.332Z,98559.81
2022-08-23T04:13:43.017Z,98569.22
2022-08-23T04:16:16.047Z,98574.94
2022-08-23T04:18:49.079Z,98572.59
2022-08-23T04:21:29.083Z,98573.97
2022-08-23T04:23:55.670Z,98574.28
2022-08-23T04:26:36.038Z,98577.59
2022-08-23T04:29:03.334Z,98576.50
2022-08-23T04:31:36.415Z,98579.16
2022-08-23T04:34:05.415Z,98579.06
2022-08-23T04:36:40.065Z,98583.88
2022-08-23T04:39:06.672Z,98579.63
2022-08-23T04:41:58.204Z,98588.81
2022-08-23T04:44:31.043Z,98594.00
2022-08-23T04:47:04.064Z,98586.97
2022-08-23T04:49:30.637Z,98593.16
2022-08-23T04:52:04.011Z,98600.16
2022-08-23T04:54:31.457Z,98595.28
2022-08-23T04:57:04.042Z,98601.94
2022-08-23T04:59:37.060Z,98599.22
2022-08-23T05:02:03.866Z,98608.34
2022-08-23T05:04:36.999Z,98609.34
2022-08-23T05:07:04.112Z,98608.16
2022-08-23T05:09:37.204Z,98613.81
2022-08-23T05:12:04.222Z,98611.69
2022-08-23T05:14:37.034Z,98608.69
2022-08-23T05:17:03.789Z,98614.03
2022-08-23T05:19:37.520Z,98619.28
2022-08-23T05:22:12.235Z,98624.13
2022-08-23T05:24:53.104Z,98629.28
2022-08-23T05:27:26.352Z,98625.59
2022-08-23T05:30:01.106Z,98628.44
2022-08-23T05:32:34.195Z,98632.06
2022-08-23T05:35:07.081Z,98628.25
2022-08-23T05:37:33.804Z,98630.09
2022-08-23T05:40:00.656Z,98623.53
2022-08-23T05:42:34.025Z,98624.06
2022-08-23T05:45:00.585Z,98620.44
2022-08-23T05:47:35.023Z,98621.91
2022-08-23T05:50:01.905Z,98624.84
2022-08-23T05:52:35.049Z,98632.09
2022-08-23T05:55:02.817Z,98628.13
2022-08-23T05:57:36.012Z,98630.63
2022-08-23T06:00:02.901Z,98640.13
2022-08-23T06:02:36.043Z,98640.84
2022-08-23T06:05:02.685Z,98642.56
2022-08-23T06:07:36.009Z,98634.13
2022-08-23T06:10:03.250Z,98630.56
2022-08-23T06:12:38.037Z,98626.78
2022-08-23T06:15:05.094Z,98634.63
2022-08-23T06:17:38.093Z,98640.97
2022-08-23T06:20:06.372Z,98634.91
2022-08-23T06:22:40.094Z,98639.34
2022-08-23T06:25:27.008Z,98630.50
2022-08-23T06:28:00.151Z,98636.72
2022-08-23T06:30:29.505Z,98636.19
2022-08-23T06:33:03.022Z,98637.41
2022-08-23T06:35:39.080Z,98643.00
2022-08-23T06:38:13.013Z,98646.00
2022-08-23T06:40:46.024Z,98641.94
2022-08-23T06:43:12.584Z,98650.97
2022-08-23T06:45:39.199Z,98652.03
2022-08-23T06:48:18.660Z,98649.75
2022-08-23T06:50:47.876Z,98650.22
2022-08-23T06:53:21.014Z,98645.56
2022-08-23T06:55:47.646Z,98650.09
2022-08-23T06:58:21.030Z,98654.63
2022-08-23T07:00:47.599Z,98659.16
2022-08-23T07:03:20.999Z,98659.75
2022-08-23T07:05:47.532Z,98663.03
2022-08-23T07:08:21.005Z,98669.59
2022-08-23T07:10:47.709Z,98665.63
2022-08-23T07:13:20.988Z,98672.09
2022-08-23T07:15:49.993Z,98675.59
2022-08-23T07:18:23.169Z,98669.22
2022-08-23T07:20:49.703Z,98676.75
2022-08-23T07:23:24.018Z,98679.81
2022-08-23T07:26:10.999Z,98671.78
2022-08-23T07:28:38.867Z,98674.47
2022-08-23T07:31:18.004Z,98675.03
2022-08-23T07:33:52.004Z,98672.84
2022-08-23T07:36:22.203Z,98680.38
2022-08-23T07:38:55.985Z,98675.13
2022-08-23T07:41:28.860Z,98688.97
2022-08-23T07:44:05.017Z,98685.81
2022-08-23T07:46:32.997Z,98697.06
2022-08-23T07:49:07.006Z,98698.88
2022-08-23T07:51:34.486Z,98695.81
2022-08-23T07:54:09.002Z,98696.63
2022-08-23T07:56:36.056Z,98705.03
2022-08-23T07:59:10.037Z,98699.31
2022-08-23T08:01:37.036Z,98709.31
2022-08-23T08:04:11.007Z,98706.69
2022-08-23T08:07:17.225Z,98709.34
2022-08-23T08:09:41.752Z,98712.56
2022-08-23T08:12:15.151Z,98709.91
2022-08-23T08:14:42.503Z,98709.34
2022-08-23T08:17:16.135Z,98717.19
2022-08-23T08:19:48.984Z,98720.84
2022-08-23T08:22:15.621Z,98726.69
2022-08-23T08:24:49.005Z,98727.81
2022-08-23T08:27:22.224Z,98728.47
2022-08-23T08:29:55.008Z,98731.47
2022-08-23T08:32:27.997Z,98746.13
2022-08-23T08:35:01.008Z,98740.97
2022-08-23T08:37:34.994Z,98747.75
2022-08-23T08:40:07.990Z,98738.34
2022-08-23T08:42:37.915Z,98741.34
2022-08-23T08:45:15.999Z,98741.34
2022-08-23T08:47:58.069Z,98749.88
2022-08-23T08:50:33.995Z,98741.56
2022-08-23T08:53:02.056Z,98749.28
2022-08-23T08:55:40.984Z,98752.25
2022-08-23T08:58:14.699Z,98755.59
2022-08-23T09:00:49.169Z,98753.31
2022-08-23T09:03:20.504Z,98750.69
2022-08-23T09:06:22.969Z,98743.81
2022-08-23T09:08:58.308Z,98747.31
2022-08-23T09:11:43.049Z,98743.41
2022-08-23T09:14:09.537Z,98746.03
2022-08-23T09:17:00.007Z,98754.03
2022-08-23T09:19:27.023Z,98752.38
2022-08-23T09:22:05.003Z,98751.91
2022-08-23T09:24:31.653Z,98761.09
2022-08-23T09:27:11.995Z,98754.91
2022-08-23T09:30:07.989Z,98754.63
2022-08-23T09:32:43.161Z,98761.44
2022-08-23T09:35:16.100Z,98765.44
2022-08-23T09:38:02.077Z,98762.09
2022-08-23T09:40:35.604Z,98761.94
2022-08-23T09:43:18.034Z,98756.38
2022-08-23T09:45:57.040Z,98755.72
2022-08-23T09:48:47.962Z,98756.63
2022-08-23T09:51:22.514Z,98758.66
2022-08-23T09:53:56.981Z,98756.63
2022-08-23T09:56:26.387Z,98757.47
2022-08-23T09:59:00.998Z,98757.59
2022-08-23T10:01:28.959Z,98762.63
2022-08-23T10:04:30.170Z,98754.63
2022-08-23T10:07:03.962Z,98764.66
2022-08-23T10:09:37.960Z,98764.50
2022-08-23T10:12:04.684Z,98766.50
2022-08-23T10:14:43.279Z,98760.78
2022-08-23T10:17:35.123Z,98764.25
2022-08-23T10:20:07.964Z,98766.56
2022-08-23T10:22:44.495Z,98754.81
2022-08-23T10:25:25.976Z,98755.13
2022-08-23T10:28:20.500Z,98759.59
2022-08-23T10:30:59.965Z,98754.41
2022-08-23T10:33:47.949Z,98752.69
2022-08-23T10:36:26.963Z,98767.31
2022-08-23T10:39:05.142Z,98757.63
2022-08-23T10:41:43.982Z,98754.94
2022-08-23T10:44:19.944Z,98761.69
2022-08-23T10:47:10.694Z,98762.25
2022-08-23T10:49:44.953Z,98759.09
2022-08-23T10:52:19.053Z,98759.44
2022-08-23T10:54:55.965Z,98770.06
2022-08-23T10:57:24.072Z,98771.97
2022-08-23T10:59:52.632Z,98770.69
2022-08-23T11:02:27.032Z,98762.38
2022-08-23T11:05:09.041Z,98774.81
2022-08-23T11:07:47.961Z,98773.78
2022-08-23T11:10:23.983Z,98769.81
2022-08-23T11:12:53.594Z,98777.25
2022-08-23T11:15:56.008Z,98768.75
2022-08-23T11:18:42.050Z,98766.88
2022-08-23T11:21:15.177Z,98775.78
2022-08-23T11:23:44.175Z,98775.47
2022-08-23T11:26:30.027Z,98779.44
2022-08-23T11:29:12.473Z,98775.94
2022-08-23T11:31:58.033Z,98778.31
2022-08-23T11:34:29.691Z,98780.91
2022-08-23T11:37:21.968Z,98781.38
2022-08-23T11:40:04.019Z,98780.47
2022-08-23T11:42:39.896Z,98781.13
2022-08-23T11:45:27.949Z,98782.84
2022-08-23T11:48:16.442Z,98776.94
2022-08-23T11:51:05.035Z,98786.09
2022-08-23T11:53:34.636Z,98789.97
2022-08-23T11:56:23.100Z,98784.28
2022-08-23T11:59:02.569Z,98786.88
2022-08-23T12:01:42.985Z,98784.38
2022-08-23T12:04:14.613Z,98792.41
2022-08-23T12:06:50.828Z,98793.22
2022-08-23T12:09:21.205Z,98797.41
2022-08-23T12:12:03.950Z,98800.78
2022-08-23T12:14:30.558Z,98799.88
2022-08-23T12:17:07.956Z,98802.13
2022-08-23T12:19:40.493Z,98795.66
2022-08-23T12:22:24.133Z,98785.31
2022-08-23T12:25:03.001Z,98791.97
2022-08-23T12:27:50.103Z,98787.91
2022-08-23T12:30:26.944Z,98790.06
2022-08-23T12:33:12.496Z,98791.81
2022-08-23T12:36:04.004Z,98800.50
2022-08-23T12:38:33.409Z,98804.75
2022-08-23T12:41:19.940Z,98796.50
2022-08-23T12:44:06.133Z,98794.59
2022-08-23T12:46:43.995Z,98791.09
2022-08-23T12:49:22.044Z,98788.22
2022-08-23T12:51:56.090Z,98791.25
2022-08-23T12:54:34.256Z,98788.88
2022-08-23T12:57:08.029Z,98787.38
2022-08-23T12:59:44.003Z,98794.03
2022-08-23T13:02:13.271Z,98794.03
2022-08-23T13:04:46.974Z,98794.03
2022-08-23T13:07:24.137Z,98796.06
2022-08-23T13:09:58.919Z,98802.75
2022-08-23T13:12:26.054Z,98794.75
2022-08-23T13:15:01.145Z,98800.78
2022-08-23T13:17:27.965Z,98805.41
2022-08-23T13:20:21.800Z,98799.84
2022-08-23T13:22:56.619Z,98808.28
2022-08-23T13:25:34.928Z,98801.25
2022-08-23T13:28:21.795Z,98801.88
2022-08-23T13:31:06.016Z,98796.63
2022-08-23T13:33:32.869Z,98803.47
2022-08-23T13:36:14.007Z,98803.00
2022-08-23T13:38:41.932Z,98799.38
2022-08-23T13:41:17.111Z,98798.84
2022-08-23T13:43:43.706Z,98801.06
2022-08-23T13:46:17.951Z,98803.09
2022-08-23T13:49:18.044Z,98797.28
2022-08-23T13:52:18.325Z,98800.06
2022-08-23T13:54:53.259Z,98788.66
2022-08-23T13:57:30.058Z,98796.81
2022-08-23T13:59:59.181Z,98791.28
2022-08-23T14:02:32.911Z,98789.88
2022-08-23T14:04:59.490Z,98787.22
2022-08-23T14:07:32.910Z,98784.72
2022-08-23T14:10:06.916Z,98785.34
2022-08-23T14:12:34.153Z,98788.50
2022-08-23T14:15:08.915Z,98788.50
2022-08-23T14:17:38.966Z,98780.94
2022-08-23T14:23:03.647Z,98783.59
2022-08-23T14:25:45.753Z,98785.63
2022-08-23T14:28:25.909Z,98777.78
2022-08-23T14:30:56.893Z,98785.81
2022-08-23T14:33:29.911Z,98779.47
2022-08-23T14:35:57.303Z,98778.25
2022-08-23T14:38:30.896Z,98768.91
2022-08-23T14:40:59.101Z,98768.44
2022-08-23T14:43:32.966Z,98775.13
2022-08-23T14:46:00.979Z,98769.59
2022-08-23T14:48:34.916Z,98765.22
2022-08-23T14:51:07.889Z,98758.56
2022-08-23T14:53:42.905Z,98770.41
2022-08-23T14:56:21.190Z,98775.13
2022-08-23T14:58:54.909Z,98773.56
2022-08-23T15:01:27.933Z,98776.88
2022-08-23T15:03:54.634Z,98778.16
2022-08-23T15:06:28.969Z,98774.09
2022-08-23T15:09:01.902Z,98778.34
2022-08-23T15:14:21.424Z,98779.63
2022-08-23T15:16:54.953Z,98780.06
2022-08-23T15:19:22.250Z,98784.63
2022-08-23T15:21:55.058Z,98789.13
2022-08-23T15:24:27.886Z,98787.13
2022-08-23T15:27:03.493Z,98786.25
2022-08-23T15:29:36.886Z,98785.25
2022-08-23T15:32:11.016Z,98786.09
2022-08-23T15:34:40.112Z,98791.25
2022-08-23T15:37:19.894Z,98796.25
2022-08-23T15:39:46.548Z,98784.50
2022-08-23T15:42:20.529Z,98794.22
2022-08-23T15:44:47.861Z,98805.38
2022-08-23T15:47:27.062Z,98806.88
2022-08-23T15:49:53.739Z,98806.41
2022-08-23T15:52:27.976Z,98811.97
2022-08-23T15:55:01.870Z,98808.47
2022-08-23T15:57:28.664Z,98801.22
2022-08-23T16:00:01.914Z,98802.06
2022-08-23T16:02:37.195Z,98805.31
2022-08-23T16:05:19.136Z,98794.94
2022-08-23T16:07:52.951Z,98801.53
2022-08-23T16:10:25.902Z,98792.03
2022-08-23T16:13:01.049Z,98808.56
2022-08-23T16:15:27.733Z,98801.53
2022-08-23T16:17:54.331Z,98809.41
2022-08-23T16:20:27.867Z,98808.34
2022-08-23T16:22:54.905Z,98807.34
2022-08-23T16:25:28.084Z,98813.09
2022-08-23T16:28:07.881Z,98814.56
2022-08-23T16:30:35.236Z,98806.72
2022-08-23T16:33:08.055Z,98804.03
2022-08-23T16:35:40.891Z,98811.03
2022-08-23T16:38:13.984Z,98809.00
2022-08-23T16:40:46.879Z,98813.38
2022-08-23T16:43:19.903Z,98811.50
2022-08-23T16:45:46.611Z,98807.25
2022-08-23T16:48:20.096Z,98810.31
2022-08-23T16:50:46.801Z,98804.09
2022-08-23T16:53:19.894Z,98808.47
2022-08-23T16:55:46.475Z,98807.63
2022-08-23T16:58:19.907Z,98810.75
2022-08-23T17:00:46.797Z,98814.28
2022-08-23T17:03:21.877Z,98819.66
2022-08-23T17:05:48.568Z,98813.38
2022-08-23T17:08:21.863Z,98815.59
2022-08-23T17:10:54.906Z,98817.25
2022-08-23T17:13:21.575Z,98823.28
2022-08-23T17:15:48.182Z,98823.09
2022-08-23T17:18:20.883Z,98819.00
2022-08-23T17:20:47.484Z,98829.91
2022-08-23T17:23:20.883Z,98827.22
2022-08-23T17:26:07.881Z,98828.06
2022-08-23T17:28:41.061Z,98823.34
2022-08-23T17:31:07.593Z,98831.38
2022-08-23T17:33:40.949Z,98829.72
2022-08-23T17:36:07.969Z,98832.03
2022-08-23T17:38:35.556Z,98835.34
2022-08-23T17:41:08.868Z,98837.22
2022-08-23T17:43:43.897Z,98835.56
2022-08-23T17:46:10.608Z,98833.88
2022-08-23T17:48:37.220Z,98841.56
2022-08-23T17:51:10.884Z,98839.44
2022-08-23T17:53:37.445Z,98847.66
2022-08-23T17:56:12.334Z,98850.97
2022-08-23T17:58:45.866Z,98851.84
2022-08-23T18:01:12.670Z,98859.59
2022-08-23T18:03:39.373Z,98859.78
2022-08-23T18:06:16.687Z,98865.59
2022-08-23T18:08:44.559Z,98872.66
2022-08-23T18:11:17.874Z,98871.63
2022-08-23T18:13:50.873Z,98877.38
2022-08-23T18:16:23.887Z,98876.53
2022-08-23T18:18:50.766Z,98878.56
2022-08-23T18:21:24.023Z,98880.41
2022-08-23T18:24:00.878Z,98877.56
2022-08-23T18:27:06.967Z,98887.06
2022-08-23T18:29:40.869Z,98891.16
2022-08-23T18:32:10.683Z,98880.25
2022-08-23T18:34:44.047Z,98890.97
2022-08-23T18:37:11.323Z,98893.66
2022-08-23T18:39:37.856Z,98897.34
2022-08-23T18:42:11.865Z,98896.16
2022-08-23T18:44:45.847Z,98908.53
2022-08-23T18:47:12.676Z,98904.00
2022-08-23T18:49:45.860Z,98915.38
2022-08-23T18:52:12.849Z,98907.53
2022-08-23T18:54:46.103Z,98915.56
2022-08-23T18:57:15.962Z,98924.44
2022-08-23T18:59:42.985Z,98923.97
2022-08-23T19:02:15.933Z,98932.50
2022-08-23T19:04:42.921Z,98930.00
2022-08-23T19:07:16.052Z,98937.03
2022-08-23T19:09:42.637Z,98935.63
2022-08-23T19:12:15.870Z,98944.97
2022-08-23T19:14:42.455Z,98945.63
2022-08-23T19:17:16.025Z,98950.00
2022-08-23T19:19:42.654Z,98949.13
2022-08-23T19:22:09.199Z,98945.63
2022-08-23T19:24:41.883Z,98945.06
2022-08-23T19:27:15.215Z,98943.69
2022-08-23T19:29:49.895Z,98955.78
2022-08-23T19:32:16.549Z,98957.00
2022-08-23T19:34:49.846Z,98952.00
2022-08-23T19:37:22.610Z,98953.22
2022-08-23T19:39:56.114Z,98955.25
2022-08-23T19:42:23.566Z,98952.75
2022-08-23T19:44:56.940Z,98952.75
2022-08-23T19:47:28.624Z,98954.59
2022-08-23T19:50:02.833Z,98958.50
2022-08-23T19:52:29.689Z,98960.53
2022-08-23T19:55:05.605Z,98955.16
2022-08-23T19:57:34.432Z,98952.47
2022-08-23T20:00:07.861Z,98958.03
2022-08-23T20:02:34.531Z,98958.03
2022-08-23T20:05:07.839Z,98959.88
2022-08-23T20:07:44.927Z,98955.53
2022-08-23T20:10:20.019Z,98960.72
2022-08-23T20:12:46.675Z,98966.91
2022-08-23T20:15:19.867Z,98960.88
2022-08-23T20:17:52.847Z,98956.16
2022-08-23T20:20:19.684Z,98963.22
2022-08-23T20:23:11.996Z,98968.94
2022-08-23T20:25:38.487Z,98962.75
2022-08-23T20:28:21.194Z,98956.53
2022-08-23T20:30:57.308Z,98967.25
2022-08-23T20:33:30.842Z,98959.22
2022-08-23T20:35:57.677Z,98960.53
2022-08-23T20:38:33.671Z,98958.97
2022-08-23T20:41:07.019Z,98960.44
2022-08-23T20:43:41.865Z,98959.78
2022-08-23T20:46:09.178Z,98962.28
2022-08-23T20:48:42.839Z,98966.44
2022-08-23T20:51:09.484Z,98969.78
2022-08-23T20:53:44.851Z,98961.44
2022-08-23T20:56:11.516Z,98960.97
2022-08-23T20:58:44.849Z,98962.19
2022-08-23T21:01:19.899Z,98962.19
2022-08-23T21:03:52.880Z,98959.78
2022-08-23T21:06:21.162Z,98960.16
2022-08-23T21:08:59.830Z,98954.97
2022-08-23T21:11:27.485Z,98951.44
2022-08-23T21:14:01.807Z,98951.75
2022-08-23T21:16:28.357Z,98960.97
2022-08-23T21:19:02.839Z,98958.28
2022-08-23T21:21:29.679Z,98956.47
2022-08-23T21:24:02.875Z,98963.00
2022-08-23T21:26:36.119Z,98964.22
2022-08-23T21:29:08.842Z,98963.38
2022-08-23T21:31:35.871Z,98969.75
2022-08-23T21:34:08.819Z,98972.63
2022-08-23T21:36:35.528Z,98976.34
2022-08-23T21:39:08.883Z,98976.16
2022-08-23T21:41:41.876Z,98973.66
2022-08-23T21:44:16.829Z,98977.53
2022-08-23T21:46:43.696Z,98974.00
2022-08-23T21:49:16.908Z,98978.19
2022-08-23T21:51:43.771Z,98974.66
2022-08-23T21:54:17.872Z,98968.28
2022-08-23T21:56:51.847Z,98970.97
2022-08-23T21:59:26.809Z,98973.47
2022-08-23T22:01:53.432Z,98972.81
2022-08-23T22:04:26.864Z,98974.00
2022-08-23T22:06:59.994Z,98981.41
2022-08-23T22:09:31.261Z,98977.25
2022-08-23T22:12:05.815Z,98974.75
2022-08-23T22:14:40.012Z,98974.75
2022-08-23T22:17:12.825Z,98980.09
2022-08-23T22:19:45.805Z,98974.56
2022-08-23T22:22:12.452Z,98979.75
2022-08-23T22:24:39.117Z,98974.38
2022-08-23T22:27:11.866Z,98970.69
2022-08-23T22:29:45.290Z,98971.31
2022-08-23T22:32:19.808Z,98966.81
2022-08-23T22:34:53.833Z,98967.63
2022-08-23T22:37:20.422Z,98965.97
2022-08-23T22:39:53.816Z,98976.50
2022-08-23T22:42:20.455Z,98973.00
2022-08-23T22:44:53.825Z,98958.56
2022-08-23T22:47:20.427Z,98968.28
2022-08-23T22:49:53.809Z,98957.56
2022-08-23T22:52:26.796Z,98950.50
2022-08-23T22:54:53.295Z,98947.00
2022-08-23T22:57:26.822Z,98940.63
2022-08-23T22:59:53.379Z,98946.81
2022-08-23T23:02:27.901Z,98946.81
2022-08-23T23:04:54.476Z,98942.69
2022-08-23T23:07:48.081Z,98943.50
2022-08-23T23:10:15.524Z,98941.00
2022-08-23T23:12:48.893Z,98937.09
2022-08-23T23:15:15.524Z,98929.91
2022-08-23T23:17:48.833Z,98931.75
2022-08-23T23:20:34.240Z,98935.75
2022-08-23T23:23:07.881Z,98919.19
2022-08-23T23:25:34.929Z,98922.03
2022-08-23T23:28:14.841Z,98915.84
2022-08-23T23:30:50.546Z,98924.06
2022-08-23T23:33:23.829Z,98928.81
2022-08-23T23:35:57.961Z,98924.06
2022-08-23T23:38:30.796Z,98926.38
2022-08-23T23:41:03.818Z,98921.88
2022-08-23T23:43:30.366Z,98921.66
2022-08-23T23:46:03.853Z,98921.66
2022-08-23T23:48:31.132Z,98913.81
2022-08-23T23:51:03.786Z,98915.47
2022-08-23T23:53:30.645Z,98907.59
2022-08-23T23:56:07.786Z,98906.25
2022-08-23T23:58:37.278Z,98904.19
